Terminal Aerodrome Forecast
Issued by NWS North Platte, NE

Home | Current Version | Previous Version | Text Only | Print | Product List | Glossary On
Versions: 1 2 3 4 5 6 7 8 9 10 11 12
263
FTUS43 KLBF 091121
TAFLBF
TAF
KLBF 091121Z 0912/1012 32007KT P6SM SCT050 OVC080
     FM091800 27006KT P6SM OVC050
     FM100000 VRB03KT P6SM OVC100=

USA.gov is the U.S. government's official web portal to all federal, state and local government web resources and services.